sensor_id;sensor_type;location;lat;lon;timestamp;P1;durP1;ratioP1;P2;durP2;ratioP2
69532;SDS011;56729;52.036;5.332;2022-08-26T00:00:25;12.80;;;2.95;;
69532;SDS011;56729;52.036;5.332;2022-08-26T00:01:27;10.63;;;2.58;;
69532;SDS011;56729;52.036;5.332;2022-08-26T00:02:30;8.52;;;2.65;;
69532;SDS011;56729;52.036;5.332;2022-08-26T00:03:32;10.65;;;2.80;;
69532;SDS011;56729;52.036;5.332;2022-08-26T00:04:36;14.75;;;3.72;;
69532;SDS011;56729;52.036;5.332;2022-08-26T00:05:38;9.88;;;2.70;;
69532;SDS011;56729;52.036;5.332;2022-08-26T00:06:41;9.75;;;3.00;;
69532;SDS011;56729;52.036;5.332;2022-08-26T00:07:46;8.23;;;2.57;;
69532;SDS011;56729;52.036;5.332;2022-08-26T00:08:48;13.77;;;3.58;;
69532;SDS011;56729;52.036;5.332;2022-08-26T00:09:51;10.80;;;2.88;;
69532;SDS011;56729;52.036;5.332;2022-08-26T00:10:55;9.07;;;2.78;;
69532;SDS011;56729;52.036;5.332;2022-08-26T00:12:00;11.00;;;2.50;;
69532;SDS011;56729;52.036;5.332;2022-08-26T00:13:02;10.18;;;2.50;;
69532;SDS011;56729;52.036;5.332;2022-08-26T00:14:06;8.93;;;2.53;;
69532;SDS011;56729;52.036;5.332;2022-08-26T00:15:09;7.57;;;2.63;;
69532;SDS011;56729;52.036;5.332;2022-08-26T00:16:12;11.52;;;2.95;;
69532;SDS011;56729;52.036;5.332;2022-08-26T00:17:14;9.50;;;3.05;;
69532;SDS011;56729;52.036;5.332;2022-08-26T00:18:17;8.83;;;2.47;;
69532;SDS011;56729;52.036;5.332;2022-08-26T00:19:22;9.25;;;2.70;;
69532;SDS011;56729;52.036;5.332;2022-08-26T00:20:26;11.05;;;2.75;;
69532;SDS011;56729;52.036;5.332;2022-08-26T00:21:31;10.68;;;2.75;;
69532;SDS011;56729;52.036;5.332;2022-08-26T00:22:33;9.70;;;2.70;;
69532;SDS011;56729;52.036;5.332;2022-08-26T00:23:35;12.68;;;2.97;;
69532;SDS011;56729;52.036;5.332;2022-08-26T00:24:37;9.30;;;2.50;;
69532;SDS011;56729;52.036;5.332;2022-08-26T00:25:48;5.85;;;2.30;;
69532;SDS011;56729;52.036;5.332;2022-08-26T00:26:50;12.65;;;2.83;;
69532;SDS011;56729;52.036;5.332;2022-08-26T00:27:52;14.57;;;3.47;;
69532;SDS011;56729;52.036;5.332;2022-08-26T00:28:56;12.93;;;2.90;;
69532;SDS011;56729;52.036;5.332;2022-08-26T00:29:58;11.65;;;2.60;;
69532;SDS011;56729;52.036;5.332;2022-08-26T00:31:01;15.38;;;2.53;;
69532;SDS011;56729;52.036;5.332;2022-08-26T00:32:07;10.20;;;2.90;;
69532;SDS011;56729;52.036;5.332;2022-08-26T00:33:11;10.73;;;2.75;;
69532;SDS011;56729;52.036;5.332;2022-08-26T00:34:13;10.30;;;2.70;;
69532;SDS011;56729;52.036;5.332;2022-08-26T00:35:19;9.93;;;2.60;;
69532;SDS011;56729;52.036;5.332;2022-08-26T00:36:23;7.53;;;2.63;;
69532;SDS011;56729;52.036;5.332;2022-08-26T00:37:29;12.15;;;2.38;;
69532;SDS011;56729;52.036;5.332;2022-08-26T00:38:33;12.20;;;3.22;;
69532;SDS011;56729;52.036;5.332;2022-08-26T00:39:38;10.40;;;2.50;;
69532;SDS011;56729;52.036;5.332;2022-08-26T00:40:47;8.30;;;2.33;;
69532;SDS011;56729;52.036;5.332;2022-08-26T00:41:51;8.52;;;2.70;;
69532;SDS011;56729;52.036;5.332;2022-08-26T00:42:53;11.70;;;2.80;;
69532;SDS011;56729;52.036;5.332;2022-08-26T00:43:55;10.05;;;2.85;;
69532;SDS011;56729;52.036;5.332;2022-08-26T00:44:57;9.27;;;2.67;;
69532;SDS011;56729;52.036;5.332;2022-08-26T00:46:04;12.30;;;2.55;;
69532;SDS011;56729;52.036;5.332;2022-08-26T00:47:08;7.90;;;3.05;;
69532;SDS011;56729;52.036;5.332;2022-08-26T00:48:18;11.82;;;2.30;;
69532;SDS011;56729;52.036;5.332;2022-08-26T00:49:26;8.63;;;2.22;;
69532;SDS011;56729;52.036;5.332;2022-08-26T00:50:37;14.57;;;2.83;;
69532;SDS011;56729;52.036;5.332;2022-08-26T00:51:45;7.97;;;2.30;;
69532;SDS011;56729;52.036;5.332;2022-08-26T00:52:51;9.68;;;2.20;;
69532;SDS011;56729;52.036;5.332;2022-08-26T00:53:59;9.50;;;2.70;;
69532;SDS011;56729;52.036;5.332;2022-08-26T00:55:08;11.07;;;2.47;;
69532;SDS011;56729;52.036;5.332;2022-08-26T00:56:21;7.05;;;2.10;;
69532;SDS011;56729;52.036;5.332;2022-08-26T00:57:31;7.50;;;2.50;;
69532;SDS011;56729;52.036;5.332;2022-08-26T00:58:35;8.18;;;2.40;;
69532;SDS011;56729;52.036;5.332;2022-08-26T00:59:41;9.40;;;2.42;;
69532;SDS011;56729;52.036;5.332;2022-08-26T01:00:45;10.32;;;3.00;;
69532;SDS011;56729;52.036;5.332;2022-08-26T01:01:48;8.57;;;2.40;;
69532;SDS011;56729;52.036;5.332;2022-08-26T01:02:50;8.88;;;2.80;;
69532;SDS011;56729;52.036;5.332;2022-08-26T01:03:55;10.18;;;2.33;;
69532;SDS011;56729;52.036;5.332;2022-08-26T01:04:58;11.43;;;2.35;;
69532;SDS011;56729;52.036;5.332;2022-08-26T01:06:05;11.23;;;2.30;;
69532;SDS011;56729;52.036;5.332;2022-08-26T01:07:13;9.65;;;2.53;;
69532;SDS011;56729;52.036;5.332;2022-08-26T01:08:16;9.80;;;2.58;;
69532;SDS011;56729;52.036;5.332;2022-08-26T01:09:18;10.98;;;3.45;;
69532;SDS011;56729;52.036;5.332;2022-08-26T01:10:23;9.75;;;2.55;;
69532;SDS011;56729;52.036;5.332;2022-08-26T01:11:30;13.13;;;2.58;;
69532;SDS011;56729;52.036;5.332;2022-08-26T01:12:34;9.57;;;2.50;;
69532;SDS011;56729;52.036;5.332;2022-08-26T01:13:42;13.88;;;3.60;;
69532;SDS011;56729;52.036;5.332;2022-08-26T01:14:45;8.65;;;2.63;;
69532;SDS011;56729;52.036;5.332;2022-08-26T01:15:53;9.52;;;2.30;;
69532;SDS011;56729;52.036;5.332;2022-08-26T01:16:57;11.65;;;2.60;;
69532;SDS011;56729;52.036;5.332;2022-08-26T01:18:05;14.00;;;3.08;;
69532;SDS011;56729;52.036;5.332;2022-08-26T01:19:14;8.20;;;2.78;;
69532;SDS011;56729;52.036;5.332;2022-08-26T01:20:27;13.50;;;2.80;;
69532;SDS011;56729;52.036;5.332;2022-08-26T01:21:55;8.38;;;2.80;;
69532;SDS011;56729;52.036;5.332;2022-08-26T01:23:00;13.20;;;2.83;;
69532;SDS011;56729;52.036;5.332;2022-08-26T01:24:04;10.77;;;2.40;;
69532;SDS011;56729;52.036;5.332;2022-08-26T01:25:10;10.65;;;2.42;;
69532;SDS011;56729;52.036;5.332;2022-08-26T01:26:20;7.78;;;1.95;;
69532;SDS011;56729;52.036;5.332;2022-08-26T01:27:26;13.93;;;3.10;;
69532;SDS011;56729;52.036;5.332;2022-08-26T01:28:33;8.70;;;2.28;;
69532;SDS011;56729;52.036;5.332;2022-08-26T01:29:37;8.57;;;2.72;;
69532;SDS011;56729;52.036;5.332;2022-08-26T01:30:41;10.02;;;2.20;;
69532;SDS011;56729;52.036;5.332;2022-08-26T01:31:45;11.57;;;2.28;;
69532;SDS011;56729;52.036;5.332;2022-08-26T01:32:51;11.20;;;2.30;;
69532;SDS011;56729;52.036;5.332;2022-08-26T01:34:01;12.90;;;2.75;;
69532;SDS011;56729;52.036;5.332;2022-08-26T01:35:19;11.07;;;2.37;;
69532;SDS011;56729;52.036;5.332;2022-08-26T01:36:22;8.85;;;2.60;;
69532;SDS011;56729;52.036;5.332;2022-08-26T01:37:28;11.25;;;2.40;;
69532;SDS011;56729;52.036;5.332;2022-08-26T01:38:35;9.32;;;2.60;;
69532;SDS011;56729;52.036;5.332;2022-08-26T01:39:37;9.82;;;2.50;;
69532;SDS011;56729;52.036;5.332;2022-08-26T01:40:40;9.38;;;2.65;;
69532;SDS011;56729;52.036;5.332;2022-08-26T01:41:44;9.40;;;2.20;;
69532;SDS011;56729;52.036;5.332;2022-08-26T01:42:53;9.30;;;2.42;;
69532;SDS011;56729;52.036;5.332;2022-08-26T01:43:56;10.40;;;1.90;;
69532;SDS011;56729;52.036;5.332;2022-08-26T01:45:03;9.13;;;2.13;;
69532;SDS011;56729;52.036;5.332;2022-08-26T01:46:11;9.77;;;2.10;;
69532;SDS011;56729;52.036;5.332;2022-08-26T01:47:15;8.02;;;2.40;;
69532;SDS011;56729;52.036;5.332;2022-08-26T01:48:19;15.07;;;2.33;;
69532;SDS011;56729;52.036;5.332;2022-08-26T01:49:26;6.53;;;1.95;;
69532;SDS011;56729;52.036;5.332;2022-08-26T01:50:32;10.38;;;1.90;;
69532;SDS011;56729;52.036;5.332;2022-08-26T01:51:36;9.43;;;2.10;;
69532;SDS011;56729;52.036;5.332;2022-08-26T01:52:40;11.75;;;2.08;;
69532;SDS011;56729;52.036;5.332;2022-08-26T01:53:44;10.95;;;2.67;;
69532;SDS011;56729;52.036;5.332;2022-08-26T01:54:47;9.43;;;3.38;;
69532;SDS011;56729;52.036;5.332;2022-08-26T01:55:52;8.50;;;2.40;;
69532;SDS011;56729;52.036;5.332;2022-08-26T01:56:57;8.43;;;2.03;;
69532;SDS011;56729;52.036;5.332;2022-08-26T01:58:01;14.40;;;2.92;;
69532;SDS011;56729;52.036;5.332;2022-08-26T01:59:07;10.15;;;2.45;;
69532;SDS011;56729;52.036;5.332;2022-08-26T02:00:13;10.10;;;2.67;;
69532;SDS011;56729;52.036;5.332;2022-08-26T02:01:16;14.02;;;2.72;;
69532;SDS011;56729;52.036;5.332;2022-08-26T02:02:19;12.07;;;2.50;;
69532;SDS011;56729;52.036;5.332;2022-08-26T02:03:22;10.48;;;2.35;;
69532;SDS011;56729;52.036;5.332;2022-08-26T02:05:31;11.55;;;2.63;;
69532;SDS011;56729;52.036;5.332;2022-08-26T02:06:36;8.77;;;2.00;;
69532;SDS011;56729;52.036;5.332;2022-08-26T02:07:40;9.27;;;1.77;;
69532;SDS011;56729;52.036;5.332;2022-08-26T02:08:42;9.45;;;2.30;;
69532;SDS011;56729;52.036;5.332;2022-08-26T02:09:47;9.52;;;2.20;;
69532;SDS011;56729;52.036;5.332;2022-08-26T02:10:50;8.70;;;2.40;;
69532;SDS011;56729;52.036;5.332;2022-08-26T02:11:55;13.18;;;2.30;;
69532;SDS011;56729;52.036;5.332;2022-08-26T02:12:59;7.63;;;2.03;;
69532;SDS011;56729;52.036;5.332;2022-08-26T02:14:09;11.75;;;2.08;;
69532;SDS011;56729;52.036;5.332;2022-08-26T02:15:15;9.38;;;2.10;;
69532;SDS011;56729;52.036;5.332;2022-08-26T02:16:18;11.27;;;2.17;;
69532;SDS011;56729;52.036;5.332;2022-08-26T02:17:31;10.55;;;2.00;;
69532;SDS011;56729;52.036;5.332;2022-08-26T02:18:39;7.17;;;1.70;;
69532;SDS011;56729;52.036;5.332;2022-08-26T02:19:45;13.98;;;2.25;;
69532;SDS011;56729;52.036;5.332;2022-08-26T02:20:50;9.05;;;2.30;;
69532;SDS011;56729;52.036;5.332;2022-08-26T02:21:55;7.75;;;1.80;;
69532;SDS011;56729;52.036;5.332;2022-08-26T02:23:00;9.30;;;2.13;;
69532;SDS011;56729;52.036;5.332;2022-08-26T02:24:07;6.82;;;1.98;;
69532;SDS011;56729;52.036;5.332;2022-08-26T02:26:25;9.90;;;2.47;;
69532;SDS011;56729;52.036;5.332;2022-08-26T02:27:31;9.13;;;2.22;;
69532;SDS011;56729;52.036;5.332;2022-08-26T02:28:38;8.38;;;1.98;;
69532;SDS011;56729;52.036;5.332;2022-08-26T02:29:52;10.10;;;2.20;;
69532;SDS011;56729;52.036;5.332;2022-08-26T02:30:57;10.88;;;2.30;;
69532;SDS011;56729;52.036;5.332;2022-08-26T02:32:05;11.70;;;2.03;;
69532;SDS011;56729;52.036;5.332;2022-08-26T02:33:08;7.93;;;1.85;;
69532;SDS011;56729;52.036;5.332;2022-08-26T02:34:14;11.52;;;1.83;;
69532;SDS011;56729;52.036;5.332;2022-08-26T02:35:20;10.02;;;1.98;;
69532;SDS011;56729;52.036;5.332;2022-08-26T02:36:25;13.15;;;1.77;;
69532;SDS011;56729;52.036;5.332;2022-08-26T02:37:29;7.95;;;2.10;;
69532;SDS011;56729;52.036;5.332;2022-08-26T02:38:34;11.52;;;2.03;;
69532;SDS011;56729;52.036;5.332;2022-08-26T02:39:38;8.48;;;2.28;;
69532;SDS011;56729;52.036;5.332;2022-08-26T02:40:41;6.93;;;1.47;;
69532;SDS011;56729;52.036;5.332;2022-08-26T02:41:44;10.77;;;2.10;;
69532;SDS011;56729;52.036;5.332;2022-08-26T02:42:48;10.63;;;1.55;;
69532;SDS011;56729;52.036;5.332;2022-08-26T02:43:53;8.60;;;1.83;;
69532;SDS011;56729;52.036;5.332;2022-08-26T02:44:56;10.15;;;2.20;;
69532;SDS011;56729;52.036;5.332;2022-08-26T02:45:58;10.88;;;1.70;;
69532;SDS011;56729;52.036;5.332;2022-08-26T02:47:02;7.57;;;1.90;;
69532;SDS011;56729;52.036;5.332;2022-08-26T02:48:09;8.55;;;2.00;;
69532;SDS011;56729;52.036;5.332;2022-08-26T02:49:14;8.07;;;1.95;;
69532;SDS011;56729;52.036;5.332;2022-08-26T02:50:17;10.88;;;2.35;;
69532;SDS011;56729;52.036;5.332;2022-08-26T02:51:20;10.17;;;1.93;;
69532;SDS011;56729;52.036;5.332;2022-08-26T02:52:23;9.02;;;1.80;;
69532;SDS011;56729;52.036;5.332;2022-08-26T02:53:25;6.88;;;1.65;;
69532;SDS011;56729;52.036;5.332;2022-08-26T02:54:32;9.15;;;1.83;;
69532;SDS011;56729;52.036;5.332;2022-08-26T02:55:34;7.20;;;1.65;;
69532;SDS011;56729;52.036;5.332;2022-08-26T02:56:37;7.53;;;2.15;;
69532;SDS011;56729;52.036;5.332;2022-08-26T02:57:39;10.93;;;1.50;;
69532;SDS011;56729;52.036;5.332;2022-08-26T02:58:42;8.30;;;1.70;;
69532;SDS011;56729;52.036;5.332;2022-08-26T02:59:44;9.13;;;1.77;;
69532;SDS011;56729;52.036;5.332;2022-08-26T03:00:45;8.80;;;1.67;;
69532;SDS011;56729;52.036;5.332;2022-08-26T03:01:53;7.67;;;1.40;;
69532;SDS011;56729;52.036;5.332;2022-08-26T03:02:57;7.30;;;1.65;;
69532;SDS011;56729;52.036;5.332;2022-08-26T03:04:01;8.60;;;2.03;;
69532;SDS011;56729;52.036;5.332;2022-08-26T03:05:04;8.93;;;1.45;;
69532;SDS011;56729;52.036;5.332;2022-08-26T03:06:08;8.27;;;1.55;;
69532;SDS011;56729;52.036;5.332;2022-08-26T03:07:10;12.18;;;1.80;;
69532;SDS011;56729;52.036;5.332;2022-08-26T03:08:12;10.07;;;1.95;;
69532;SDS011;56729;52.036;5.332;2022-08-26T03:09:15;9.15;;;1.70;;
69532;SDS011;56729;52.036;5.332;2022-08-26T03:10:19;8.77;;;2.40;;
69532;SDS011;56729;52.036;5.332;2022-08-26T03:11:22;11.45;;;2.03;;
69532;SDS011;56729;52.036;5.332;2022-08-26T03:12:25;8.70;;;1.47;;
69532;SDS011;56729;52.036;5.332;2022-08-26T03:13:27;12.32;;;1.88;;
69532;SDS011;56729;52.036;5.332;2022-08-26T03:14:31;9.20;;;1.50;;
69532;SDS011;56729;52.036;5.332;2022-08-26T03:15:33;7.57;;;1.75;;
69532;SDS011;56729;52.036;5.332;2022-08-26T03:16:37;7.18;;;1.58;;
69532;SDS011;56729;52.036;5.332;2022-08-26T03:17:40;6.07;;;1.60;;
69532;SDS011;56729;52.036;5.332;2022-08-26T03:18:43;8.75;;;1.92;;
69532;SDS011;56729;52.036;5.332;2022-08-26T03:19:52;8.60;;;1.63;;
69532;SDS011;56729;52.036;5.332;2022-08-26T03:20:57;11.45;;;1.92;;
69532;SDS011;56729;52.036;5.332;2022-08-26T03:22:05;7.95;;;1.80;;
69532;SDS011;56729;52.036;5.332;2022-08-26T03:23:07;10.17;;;1.63;;
69532;SDS011;56729;52.036;5.332;2022-08-26T03:24:10;10.88;;;2.15;;
69532;SDS011;56729;52.036;5.332;2022-08-26T03:25:13;10.57;;;2.00;;
69532;SDS011;56729;52.036;5.332;2022-08-26T03:26:17;9.95;;;1.58;;
69532;SDS011;56729;52.036;5.332;2022-08-26T03:27:19;9.98;;;1.95;;
69532;SDS011;56729;52.036;5.332;2022-08-26T03:28:21;7.05;;;2.13;;
69532;SDS011;56729;52.036;5.332;2022-08-26T03:29:27;7.65;;;1.70;;
69532;SDS011;56729;52.036;5.332;2022-08-26T03:30:54;12.57;;;2.00;;
69532;SDS011;56729;52.036;5.332;2022-08-26T03:31:57;8.30;;;1.65;;
69532;SDS011;56729;52.036;5.332;2022-08-26T03:33:02;9.73;;;1.80;;
69532;SDS011;56729;52.036;5.332;2022-08-26T03:34:04;7.07;;;1.50;;
69532;SDS011;56729;52.036;5.332;2022-08-26T03:35:07;10.82;;;1.83;;
69532;SDS011;56729;52.036;5.332;2022-08-26T03:36:09;7.05;;;1.70;;
69532;SDS011;56729;52.036;5.332;2022-08-26T03:37:11;9.68;;;1.80;;
69532;SDS011;56729;52.036;5.332;2022-08-26T03:38:13;9.57;;;1.75;;
69532;SDS011;56729;52.036;5.332;2022-08-26T03:39:15;7.72;;;1.83;;
69532;SDS011;56729;52.036;5.332;2022-08-26T03:40:17;8.07;;;1.90;;
69532;SDS011;56729;52.036;5.332;2022-08-26T03:41:20;7.78;;;1.48;;
69532;SDS011;56729;52.036;5.332;2022-08-26T03:42:22;11.65;;;1.80;;
69532;SDS011;56729;52.036;5.332;2022-08-26T03:43:25;7.47;;;1.67;;
69532;SDS011;56729;52.036;5.332;2022-08-26T03:44:27;8.97;;;2.10;;
69532;SDS011;56729;52.036;5.332;2022-08-26T03:45:29;6.90;;;1.77;;
69532;SDS011;56729;52.036;5.332;2022-08-26T03:46:31;7.97;;;1.50;;
69532;SDS011;56729;52.036;5.332;2022-08-26T03:47:33;8.88;;;1.63;;
69532;SDS011;56729;52.036;5.332;2022-08-26T03:48:38;6.32;;;1.50;;
69532;SDS011;56729;52.036;5.332;2022-08-26T03:49:41;7.28;;;1.60;;
69532;SDS011;56729;52.036;5.332;2022-08-26T03:50:43;11.77;;;2.00;;
69532;SDS011;56729;52.036;5.332;2022-08-26T03:51:49;10.38;;;2.03;;
69532;SDS011;56729;52.036;5.332;2022-08-26T03:52:51;8.88;;;1.90;;
69532;SDS011;56729;52.036;5.332;2022-08-26T03:53:55;8.45;;;1.80;;
69532;SDS011;56729;52.036;5.332;2022-08-26T03:54:57;9.33;;;1.80;;
69532;SDS011;56729;52.036;5.332;2022-08-26T03:56:01;9.98;;;2.13;;
69532;SDS011;56729;52.036;5.332;2022-08-26T03:57:03;7.43;;;1.83;;
69532;SDS011;56729;52.036;5.332;2022-08-26T03:58:06;8.50;;;1.80;;
69532;SDS011;56729;52.036;5.332;2022-08-26T03:59:07;6.47;;;2.13;;
69532;SDS011;56729;52.036;5.332;2022-08-26T04:00:11;7.00;;;1.58;;
69532;SDS011;56729;52.036;5.332;2022-08-26T04:01:18;6.30;;;1.50;;
69532;SDS011;56729;52.036;5.332;2022-08-26T04:02:21;7.75;;;1.50;;
69532;SDS011;56729;52.036;5.332;2022-08-26T04:03:24;7.68;;;1.92;;
69532;SDS011;56729;52.036;5.332;2022-08-26T04:04:45;8.00;;;2.33;;
69532;SDS011;56729;52.036;5.332;2022-08-26T04:05:50;8.27;;;1.40;;
69532;SDS011;56729;52.036;5.332;2022-08-26T04:06:56;9.77;;;1.60;;
69532;SDS011;56729;52.036;5.332;2022-08-26T04:07:59;7.22;;;1.35;;
69532;SDS011;56729;52.036;5.332;2022-08-26T04:09:03;8.18;;;1.33;;
69532;SDS011;56729;52.036;5.332;2022-08-26T04:10:07;7.68;;;1.88;;
69532;SDS011;56729;52.036;5.332;2022-08-26T04:11:15;7.13;;;1.60;;
69532;SDS011;56729;52.036;5.332;2022-08-26T04:12:22;5.78;;;1.60;;
69532;SDS011;56729;52.036;5.332;2022-08-26T04:13:27;8.50;;;1.52;;
69532;SDS011;56729;52.036;5.332;2022-08-26T04:14:29;7.72;;;1.60;;
69532;SDS011;56729;52.036;5.332;2022-08-26T04:15:32;5.30;;;1.50;;
69532;SDS011;56729;52.036;5.332;2022-08-26T04:16:34;6.83;;;1.43;;
69532;SDS011;56729;52.036;5.332;2022-08-26T04:17:36;6.18;;;1.50;;
69532;SDS011;56729;52.036;5.332;2022-08-26T04:18:38;8.60;;;1.80;;
69532;SDS011;56729;52.036;5.332;2022-08-26T04:19:47;5.18;;;1.50;;
69532;SDS011;56729;52.036;5.332;2022-08-26T04:20:49;6.13;;;1.50;;
69532;SDS011;56729;52.036;5.332;2022-08-26T04:21:51;10.65;;;1.83;;
69532;SDS011;56729;52.036;5.332;2022-08-26T04:22:54;7.63;;;1.40;;
69532;SDS011;56729;52.036;5.332;2022-08-26T04:23:56;5.85;;;1.67;;
69532;SDS011;56729;52.036;5.332;2022-08-26T04:24:58;7.25;;;1.65;;
69532;SDS011;56729;52.036;5.332;2022-08-26T04:26:00;12.23;;;1.60;;
69532;SDS011;56729;52.036;5.332;2022-08-26T04:27:02;8.27;;;1.30;;
69532;SDS011;56729;52.036;5.332;2022-08-26T04:28:08;10.90;;;1.67;;
69532;SDS011;56729;52.036;5.332;2022-08-26T04:29:18;14.45;;;1.65;;
69532;SDS011;56729;52.036;5.332;2022-08-26T04:30:24;8.52;;;1.25;;
69532;SDS011;56729;52.036;5.332;2022-08-26T04:31:26;8.18;;;1.50;;
69532;SDS011;56729;52.036;5.332;2022-08-26T04:32:31;8.32;;;1.73;;
69532;SDS011;56729;52.036;5.332;2022-08-26T04:33:34;8.40;;;1.70;;
69532;SDS011;56729;52.036;5.332;2022-08-26T04:34:42;7.43;;;1.45;;
69532;SDS011;56729;52.036;5.332;2022-08-26T04:35:45;8.85;;;1.88;;
69532;SDS011;56729;52.036;5.332;2022-08-26T04:36:48;7.95;;;1.60;;
69532;SDS011;56729;52.036;5.332;2022-08-26T04:37:51;5.50;;;1.23;;
69532;SDS011;56729;52.036;5.332;2022-08-26T04:38:54;10.00;;;2.08;;
69532;SDS011;56729;52.036;5.332;2022-08-26T04:39:56;6.95;;;1.65;;
69532;SDS011;56729;52.036;5.332;2022-08-26T04:40:59;6.60;;;1.38;;
69532;SDS011;56729;52.036;5.332;2022-08-26T04:42:01;7.75;;;1.75;;
69532;SDS011;56729;52.036;5.332;2022-08-26T04:43:03;5.80;;;1.30;;
69532;SDS011;56729;52.036;5.332;2022-08-26T04:44:07;6.65;;;1.33;;
69532;SDS011;56729;52.036;5.332;2022-08-26T04:45:09;9.57;;;1.55;;
69532;SDS011;56729;52.036;5.332;2022-08-26T04:46:12;8.00;;;1.70;;
69532;SDS011;56729;52.036;5.332;2022-08-26T04:47:19;5.63;;;1.38;;
69532;SDS011;56729;52.036;5.332;2022-08-26T04:48:21;8.07;;;1.30;;
69532;SDS011;56729;52.036;5.332;2022-08-26T04:49:23;10.25;;;1.65;;
69532;SDS011;56729;52.036;5.332;2022-08-26T04:50:27;9.30;;;1.25;;
69532;SDS011;56729;52.036;5.332;2022-08-26T04:51:30;8.30;;;1.67;;
69532;SDS011;56729;52.036;5.332;2022-08-26T04:52:36;10.15;;;1.60;;
69532;SDS011;56729;52.036;5.332;2022-08-26T04:53:38;8.15;;;1.50;;
69532;SDS011;56729;52.036;5.332;2022-08-26T04:54:40;8.10;;;1.52;;
69532;SDS011;56729;52.036;5.332;2022-08-26T04:55:44;9.18;;;1.38;;
69532;SDS011;56729;52.036;5.332;2022-08-26T04:56:48;5.35;;;1.60;;
69532;SDS011;56729;52.036;5.332;2022-08-26T04:57:51;6.05;;;1.45;;
69532;SDS011;56729;52.036;5.332;2022-08-26T04:58:53;8.17;;;1.50;;
69532;SDS011;56729;52.036;5.332;2022-08-26T04:59:56;5.90;;;1.27;;
69532;SDS011;56729;52.036;5.332;2022-08-26T05:00:58;5.43;;;1.52;;
69532;SDS011;56729;52.036;5.332;2022-08-26T05:02:00;11.27;;;1.98;;
69532;SDS011;56729;52.036;5.332;2022-08-26T05:03:06;9.23;;;1.90;;
69532;SDS011;56729;52.036;5.332;2022-08-26T05:04:10;6.70;;;1.38;;
69532;SDS011;56729;52.036;5.332;2022-08-26T05:05:16;6.43;;;1.30;;
69532;SDS011;56729;52.036;5.332;2022-08-26T05:06:19;8.13;;;1.52;;
69532;SDS011;56729;52.036;5.332;2022-08-26T05:07:22;6.78;;;1.35;;
69532;SDS011;56729;52.036;5.332;2022-08-26T05:08:24;7.28;;;1.58;;
69532;SDS011;56729;52.036;5.332;2022-08-26T05:09:27;7.70;;;1.50;;
69532;SDS011;56729;52.036;5.332;2022-08-26T05:10:30;5.00;;;1.38;;
69532;SDS011;56729;52.036;5.332;2022-08-26T05:11:34;6.32;;;1.35;;
69532;SDS011;56729;52.036;5.332;2022-08-26T05:12:37;8.43;;;1.20;;
69532;SDS011;56729;52.036;5.332;2022-08-26T05:13:40;8.63;;;1.27;;
69532;SDS011;56729;52.036;5.332;2022-08-26T05:14:42;9.07;;;1.10;;
69532;SDS011;56729;52.036;5.332;2022-08-26T05:15:45;5.22;;;1.42;;
69532;SDS011;56729;52.036;5.332;2022-08-26T05:16:49;9.85;;;1.98;;
69532;SDS011;56729;52.036;5.332;2022-08-26T05:17:52;7.75;;;1.40;;
69532;SDS011;56729;52.036;5.332;2022-08-26T05:18:54;7.20;;;1.60;;
69532;SDS011;56729;52.036;5.332;2022-08-26T05:19:56;6.83;;;1.33;;
69532;SDS011;56729;52.036;5.332;2022-08-26T05:20:59;10.50;;;1.35;;
69532;SDS011;56729;52.036;5.332;2022-08-26T05:22:03;8.43;;;1.70;;
69532;SDS011;56729;52.036;5.332;2022-08-26T05:23:05;8.95;;;1.60;;
69532;SDS011;56729;52.036;5.332;2022-08-26T05:24:09;7.38;;;1.25;;
69532;SDS011;56729;52.036;5.332;2022-08-26T05:25:12;7.68;;;1.30;;
69532;SDS011;56729;52.036;5.332;2022-08-26T05:26:15;6.60;;;1.50;;
69532;SDS011;56729;52.036;5.332;2022-08-26T05:27:23;6.97;;;2.05;;
69532;SDS011;56729;52.036;5.332;2022-08-26T05:28:25;8.50;;;2.10;;
69532;SDS011;56729;52.036;5.332;2022-08-26T05:29:29;6.57;;;1.65;;
69532;SDS011;56729;52.036;5.332;2022-08-26T05:30:31;9.87;;;1.50;;
69532;SDS011;56729;52.036;5.332;2022-08-26T05:31:34;8.23;;;1.20;;
69532;SDS011;56729;52.036;5.332;2022-08-26T05:32:36;6.40;;;1.15;;
69532;SDS011;56729;52.036;5.332;2022-08-26T05:33:38;7.32;;;1.67;;
69532;SDS011;56729;52.036;5.332;2022-08-26T05:34:41;8.68;;;1.60;;
69532;SDS011;56729;52.036;5.332;2022-08-26T05:35:44;10.13;;;2.03;;
69532;SDS011;56729;52.036;5.332;2022-08-26T05:36:46;7.72;;;1.42;;
69532;SDS011;56729;52.036;5.332;2022-08-26T05:37:48;7.90;;;1.83;;
69532;SDS011;56729;52.036;5.332;2022-08-26T05:38:50;12.02;;;1.73;;
69532;SDS011;56729;52.036;5.332;2022-08-26T05:39:52;8.40;;;2.10;;
69532;SDS011;56729;52.036;5.332;2022-08-26T05:40:54;7.43;;;1.20;;
69532;SDS011;56729;52.036;5.332;2022-08-26T05:41:56;5.07;;;1.23;;
69532;SDS011;56729;52.036;5.332;2022-08-26T05:43:00;8.60;;;1.35;;
69532;SDS011;56729;52.036;5.332;2022-08-26T05:44:03;7.13;;;1.40;;
69532;SDS011;56729;52.036;5.332;2022-08-26T05:45:08;8.88;;;1.80;;
69532;SDS011;56729;52.036;5.332;2022-08-26T05:46:11;5.88;;;1.42;;
69532;SDS011;56729;52.036;5.332;2022-08-26T05:47:14;6.68;;;1.40;;
69532;SDS011;56729;52.036;5.332;2022-08-26T05:48:18;10.43;;;1.70;;
69532;SDS011;56729;52.036;5.332;2022-08-26T05:49:24;7.60;;;1.20;;
69532;SDS011;56729;52.036;5.332;2022-08-26T05:50:26;11.02;;;1.70;;
69532;SDS011;56729;52.036;5.332;2022-08-26T05:51:28;9.37;;;1.40;;
69532;SDS011;56729;52.036;5.332;2022-08-26T05:52:31;8.63;;;1.55;;
69532;SDS011;56729;52.036;5.332;2022-08-26T05:53:34;8.18;;;1.10;;
69532;SDS011;56729;52.036;5.332;2022-08-26T05:54:38;8.77;;;1.65;;
69532;SDS011;56729;52.036;5.332;2022-08-26T05:55:44;6.80;;;1.42;;
69532;SDS011;56729;52.036;5.332;2022-08-26T05:56:50;10.55;;;2.45;;
69532;SDS011;56729;52.036;5.332;2022-08-26T05:57:52;8.98;;;1.42;;
69532;SDS011;56729;52.036;5.332;2022-08-26T05:58:55;10.32;;;1.73;;
69532;SDS011;56729;52.036;5.332;2022-08-26T06:00:00;4.38;;;1.20;;
69532;SDS011;56729;52.036;5.332;2022-08-26T06:01:13;5.78;;;1.75;;
69532;SDS011;56729;52.036;5.332;2022-08-26T06:02:17;8.87;;;1.93;;
69532;SDS011;56729;52.036;5.332;2022-08-26T06:03:19;7.82;;;1.63;;
69532;SDS011;56729;52.036;5.332;2022-08-26T06:04:23;11.43;;;2.28;;
69532;SDS011;56729;52.036;5.332;2022-08-26T06:05:30;10.57;;;1.40;;
69532;SDS011;56729;52.036;5.332;2022-08-26T06:06:38;6.75;;;1.50;;
69532;SDS011;56729;52.036;5.332;2022-08-26T06:07:43;8.65;;;1.67;;
69532;SDS011;56729;52.036;5.332;2022-08-26T06:09:04;7.93;;;1.63;;
69532;SDS011;56729;52.036;5.332;2022-08-26T06:10:12;9.13;;;1.95;;
69532;SDS011;56729;52.036;5.332;2022-08-26T06:11:32;6.95;;;1.63;;
69532;SDS011;56729;52.036;5.332;2022-08-26T06:12:34;7.35;;;2.13;;
69532;SDS011;56729;52.036;5.332;2022-08-26T06:13:38;11.70;;;1.73;;
69532;SDS011;56729;52.036;5.332;2022-08-26T06:14:40;9.48;;;1.88;;
69532;SDS011;56729;52.036;5.332;2022-08-26T06:15:43;8.57;;;1.60;;
69532;SDS011;56729;52.036;5.332;2022-08-26T06:16:46;7.18;;;1.50;;
69532;SDS011;56729;52.036;5.332;2022-08-26T06:17:49;11.45;;;1.73;;
69532;SDS011;56729;52.036;5.332;2022-08-26T06:18:51;15.25;;;1.63;;
69532;SDS011;56729;52.036;5.332;2022-08-26T06:19:53;8.13;;;1.20;;
69532;SDS011;56729;52.036;5.332;2022-08-26T06:20:55;9.27;;;2.00;;
69532;SDS011;56729;52.036;5.332;2022-08-26T06:21:58;9.00;;;1.58;;
69532;SDS011;56729;52.036;5.332;2022-08-26T06:23:25;7.80;;;1.27;;
69532;SDS011;56729;52.036;5.332;2022-08-26T06:24:46;7.50;;;1.60;;
69532;SDS011;56729;52.036;5.332;2022-08-26T06:26:08;9.95;;;1.73;;
69532;SDS011;56729;52.036;5.332;2022-08-26T06:27:11;9.07;;;1.42;;
69532;SDS011;56729;52.036;5.332;2022-08-26T06:28:15;7.03;;;1.40;;
69532;SDS011;56729;52.036;5.332;2022-08-26T06:29:19;9.85;;;1.80;;